메인 페이지
METAR-TAF:

METAR-TAF

공항 :

Childress, 텍사스, 미국

위도: 34-25-39N, 경도: 100-17-00W, 고도: 595m

현재 날씨관측

예보는 41분 전, 18:53시(UTC)에 발표되었습니다.
17kt, 순간 최대 풍속 21kt
온도 24°C
습도 24%
기압 1012 hPa
시정: 16.1km
맑음
약한비

METAR: KCDS 191853Z AUTO 17017G21KT 10SM -RA CLR 24/02 A2988 RMK AO2 RAB1755 SLP103 P0000 T02390022

시각: 13:34 (19:34 UTC)

예보

예보는 2 시간 11분 전, 17:23시(UTC)에 발표되었습니다.
예보 대상 시간: 19일 18시부터 20일 18시까지 (UTC)
13kt, 순간 최대 풍속 21kt
시정: 10km
고도 25000ft 상공 구름 보통
20일 0100시부터 (UTC)
11kt
시정: 10km
고도 25000ft 상공 구름 보통
20일 1200시부터 (UTC)
12kt
시정: 10km
고도 10000ft 상공 흐림

TAF: KCDS 191723Z 1918/2018 17013G21KT P6SM SCT250 FM200100 17011KT P6SM SCT250 FM201200 18012KT P6SM OVC100

4,000개 이상의 공항 관측 자료 및 예보 (METAR 및 TAF 보고).

지도상에서 검색 가능한 기상관측소가 노란 점과 빨간 점으로 표시되어 있습니다.

기상관측소 명을 보려면 표시 위로 마우스를 이동하세요.

날씨 관측과 예보를 보려면 클릭하세요.

지도 변경 : 확대하려면 엑스 표시가 있는 녹색 버튼, 축소하려면 빼기 표시가 있는 녹색 버튼, 다음 페이지의 지도를 보려면 녹색 화살표를 클릭하세요.


METAR-TAF: